sensor_id;sensor_type;location;lat;lon;timestamp;pressure;altitude;pressure_sealevel;temperature;humidity
74688;BME280;63216;49.544;8.442;2022-10-16T00:00:44;100350.84;;;22.54;62.07
74688;BME280;63216;49.544;8.442;2022-10-16T00:03:10;100337.34;;;22.52;61.89
74688;BME280;63216;49.544;8.442;2022-10-16T00:05:41;100336.06;;;22.53;62.19
74688;BME280;63216;49.544;8.442;2022-10-16T00:08:08;100337.34;;;22.52;62.04
74688;BME280;63216;49.544;8.442;2022-10-16T00:10:34;100330.97;;;22.52;62.06
74688;BME280;63216;49.544;8.442;2022-10-16T00:13:00;100326.16;;;22.52;61.73
74688;BME280;63216;49.544;8.442;2022-10-16T00:15:26;100330.97;;;22.52;61.77
74688;BME280;63216;49.544;8.442;2022-10-16T00:17:51;100328.94;;;22.52;61.80
74688;BME280;63216;49.544;8.442;2022-10-16T00:20:17;100336.06;;;22.53;61.73
74688;BME280;63216;49.544;8.442;2022-10-16T00:22:42;100329.72;;;22.53;61.57
74688;BME280;63216;49.544;8.442;2022-10-16T00:25:08;100342.16;;;22.52;61.89
74688;BME280;63216;49.544;8.442;2022-10-16T00:27:34;100334.25;;;22.50;61.86
74688;BME280;63216;49.544;8.442;2022-10-16T00:29:59;100344.97;;;22.52;61.83
74688;BME280;63216;49.544;8.442;2022-10-16T00:32:24;100339.38;;;22.52;62.09
74688;BME280;63216;49.544;8.442;2022-10-16T00:34:50;100339.38;;;22.52;62.04
74688;BME280;63216;49.544;8.442;2022-10-16T00:37:16;100347.28;;;22.53;61.89
74688;BME280;63216;49.544;8.442;2022-10-16T00:39:41;100346.53;;;22.53;61.93
74688;BME280;63216;49.544;8.442;2022-10-16T00:42:11;100340.41;;;22.54;61.71
74688;BME280;63216;49.544;8.442;2022-10-16T00:44:52;100347.28;;;22.53;62.03
74688;BME280;63216;49.544;8.442;2022-10-16T00:47:23;100350.84;;;22.54;62.05
74688;BME280;63216;49.544;8.442;2022-10-16T00:49:52;100357.22;;;22.54;61.91
74688;BME280;63216;49.544;8.442;2022-10-16T00:52:19;100360.53;;;22.53;61.59
74688;BME280;63216;49.544;8.442;2022-10-16T00:54:45;100362.56;;;22.52;61.87
74688;BME280;63216;49.544;8.442;2022-10-16T00:57:11;100364.59;;;22.52;61.72
74688;BME280;63216;49.544;8.442;2022-10-16T00:59:38;100358.50;;;22.53;61.74
74688;BME280;63216;49.544;8.442;2022-10-16T01:02:07;100352.88;;;22.53;61.27
74688;BME280;63216;49.544;8.442;2022-10-16T01:04:52;100344.97;;;22.52;61.96
74688;BME280;63216;49.544;8.442;2022-10-16T01:12:44;100363.56;;;22.49;61.70
74688;BME280;63216;49.544;8.442;2022-10-16T01:15:29;100363.84;;;22.51;61.34
74688;BME280;63216;49.544;8.442;2022-10-16T01:20:51;100369.16;;;22.49;61.91
74688;BME280;63216;49.544;8.442;2022-10-16T01:23:36;100361.25;;;22.48;61.70
74688;BME280;63216;49.544;8.442;2022-10-16T01:31:59;100370.94;;;22.47;61.92
74688;BME280;63216;49.544;8.442;2022-10-16T01:34:42;100377.31;;;22.47;61.52
74688;BME280;63216;49.544;8.442;2022-10-16T01:37:15;100375.00;;;22.46;61.90
74688;BME280;63216;49.544;8.442;2022-10-16T01:39:46;100374.25;;;22.45;61.82
74688;BME280;63216;49.544;8.442;2022-10-16T01:42:20;100377.81;;;22.46;61.76
74688;BME280;63216;49.544;8.442;2022-10-16T01:44:48;100383.41;;;22.46;61.43
74688;BME280;63216;49.544;8.442;2022-10-16T01:47:15;100381.38;;;22.46;61.81
74688;BME280;63216;49.544;8.442;2022-10-16T01:49:43;100384.66;;;22.45;61.58
74688;BME280;63216;49.544;8.442;2022-10-16T01:52:14;100370.16;;;22.46;61.40
74688;BME280;63216;49.544;8.442;2022-10-16T01:54:43;100363.78;;;22.46;61.28
74688;BME280;63216;49.544;8.442;2022-10-16T01:57:12;100371.72;;;22.47;61.36
74688;BME280;63216;49.544;8.442;2022-10-16T01:59:44;100375.75;;;22.46;61.49
74688;BME280;63216;49.544;8.442;2022-10-16T02:02:10;100369.41;;;22.46;61.77
74688;BME280;63216;49.544;8.442;2022-10-16T02:04:42;100370.94;;;22.47;61.76
74688;BME280;63216;49.544;8.442;2022-10-16T02:07:09;100359.75;;;22.47;61.33
74688;BME280;63216;49.544;8.442;2022-10-16T02:09:36;100364.56;;;22.46;61.88
74688;BME280;63216;49.544;8.442;2022-10-16T02:12:15;100358.19;;;22.46;61.57
74688;BME280;63216;49.544;8.442;2022-10-16T02:14:41;100365.34;;;22.47;61.30
74688;BME280;63216;49.544;8.442;2022-10-16T02:17:15;100356.16;;;22.46;61.46
74688;BME280;63216;49.544;8.442;2022-10-16T02:19:42;100356.16;;;22.46;61.81
74688;BME280;63216;49.544;8.442;2022-10-16T02:22:14;100359.75;;;22.47;61.62
74688;BME280;63216;49.544;8.442;2022-10-16T02:24:57;100368.16;;;22.47;61.57
74688;BME280;63216;49.544;8.442;2022-10-16T02:28:01;100372.47;;;22.48;61.41
74688;BME280;63216;49.544;8.442;2022-10-16T02:30:33;100370.16;;;22.46;61.49
74688;BME280;63216;49.544;8.442;2022-10-16T02:33:01;100370.16;;;22.46;61.29
74688;BME280;63216;49.544;8.442;2022-10-16T02:35:29;100366.34;;;22.43;61.72
74688;BME280;63216;49.544;8.442;2022-10-16T02:37:56;100363.03;;;22.45;61.85
74688;BME280;63216;49.544;8.442;2022-10-16T02:40:23;100369.13;;;22.43;62.06
74688;BME280;63216;49.544;8.442;2022-10-16T02:42:53;100377.53;;;22.43;61.79
74688;BME280;63216;49.544;8.442;2022-10-16T02:45:18;100370.38;;;22.42;61.72
74688;BME280;63216;49.544;8.442;2022-10-16T02:47:44;100371.19;;;22.43;61.92
74688;BME280;63216;49.544;8.442;2022-10-16T02:50:10;100375.50;;;22.44;61.30
74688;BME280;63216;49.544;8.442;2022-10-16T02:52:35;100368.88;;;22.41;61.66
74688;BME280;63216;49.544;8.442;2022-10-16T02:55:00;100378.31;;;22.44;61.75
74688;BME280;63216;49.544;8.442;2022-10-16T02:57:26;100383.91;;;22.44;61.76
74688;BME280;63216;49.544;8.442;2022-10-16T02:59:51;100378.78;;;22.42;61.65
74688;BME280;63216;49.544;8.442;2022-10-16T03:02:17;100380.34;;;22.43;61.32
74688;BME280;63216;49.544;8.442;2022-10-16T03:04:42;100366.34;;;22.43;61.56
74688;BME280;63216;49.544;8.442;2022-10-16T03:07:08;100364.03;;;22.42;62.11
74688;BME280;63216;49.544;8.442;2022-10-16T03:09:33;100362.47;;;22.41;61.65
74688;BME280;63216;49.544;8.442;2022-10-16T03:11:58;100370.63;;;22.39;61.86
74688;BME280;63216;49.544;8.442;2022-10-16T03:14:24;100372.94;;;22.40;61.69
74688;BME280;63216;49.544;8.442;2022-10-16T03:16:49;100369.84;;;22.38;61.87
74688;BME280;63216;49.544;8.442;2022-10-16T03:19:16;100373.91;;;22.37;61.78
74688;BME280;63216;49.544;8.442;2022-10-16T03:21:41;100376.72;;;22.37;61.80
74688;BME280;63216;49.544;8.442;2022-10-16T03:24:07;100379.50;;;22.37;61.71
74688;BME280;63216;49.544;8.442;2022-10-16T03:26:32;100379.50;;;22.37;61.88
74688;BME280;63216;49.544;8.442;2022-10-16T03:28:57;100379.50;;;22.37;61.70
74688;BME280;63216;49.544;8.442;2022-10-16T03:31:23;100374.69;;;22.38;61.57
74688;BME280;63216;49.544;8.442;2022-10-16T03:33:48;100385.91;;;22.38;61.79
74688;BME280;63216;49.544;8.442;2022-10-16T03:36:13;100372.41;;;22.36;62.17
74688;BME280;63216;49.544;8.442;2022-10-16T03:38:39;100375.19;;;22.36;62.07
74688;BME280;63216;49.544;8.442;2022-10-16T03:41:04;100382.84;;;22.36;61.73
74688;BME280;63216;49.544;8.442;2022-10-16T03:43:33;100388.44;;;22.36;61.79
74688;BME280;63216;49.544;8.442;2022-10-16T03:45:59;100393.25;;;22.35;61.59
74688;BME280;63216;49.544;8.442;2022-10-16T03:48:24;100395.31;;;22.35;61.80
74688;BME280;63216;49.544;8.442;2022-10-16T03:50:49;100400.16;;;22.34;62.02
74688;BME280;63216;49.544;8.442;2022-10-16T03:53:16;100401.41;;;22.33;62.17
74688;BME280;63216;49.544;8.442;2022-10-16T03:55:43;100404.97;;;22.34;62.11
74688;BME280;63216;49.544;8.442;2022-10-16T03:58:08;100409.81;;;22.33;61.97
74688;BME280;63216;49.544;8.442;2022-10-16T04:00:33;100411.84;;;22.33;61.92
74688;BME280;63216;49.544;8.442;2022-10-16T04:03:00;100407.00;;;22.33;61.85
74688;BME280;63216;49.544;8.442;2022-10-16T04:05:25;100400.63;;;22.33;61.96
74688;BME280;63216;49.544;8.442;2022-10-16T04:07:51;100404.69;;;22.32;61.75
74688;BME280;63216;49.544;8.442;2022-10-16T04:10:16;100416.69;;;22.32;61.97
74688;BME280;63216;49.544;8.442;2022-10-16T04:12:41;100407.50;;;22.32;61.77
74688;BME280;63216;49.544;8.442;2022-10-16T04:15:07;100411.84;;;22.33;62.04
74688;BME280;63216;49.544;8.442;2022-10-16T04:17:33;100402.69;;;22.32;61.75
74688;BME280;63216;49.544;8.442;2022-10-16T04:19:58;100419.50;;;22.32;61.85
74688;BME280;63216;49.544;8.442;2022-10-16T04:22:23;100417.44;;;22.33;61.84
74688;BME280;63216;49.544;8.442;2022-10-16T04:24:48;100425.34;;;22.34;62.03
74688;BME280;63216;49.544;8.442;2022-10-16T04:27:14;100423.81;;;22.33;61.62
74688;BME280;63216;49.544;8.442;2022-10-16T04:29:39;100405.75;;;22.34;62.00
74688;BME280;63216;49.544;8.442;2022-10-16T04:32:04;100404.19;;;22.33;61.81
74688;BME280;63216;49.544;8.442;2022-10-16T04:34:30;100410.56;;;22.34;62.15
74688;BME280;63216;49.544;8.442;2022-10-16T04:36:55;100410.56;;;22.34;61.77
74688;BME280;63216;49.544;8.442;2022-10-16T04:39:21;100418.97;;;22.34;61.97
74688;BME280;63216;49.544;8.442;2022-10-16T04:41:46;100413.38;;;22.34;62.26
74688;BME280;63216;49.544;8.442;2022-10-16T04:44:11;100418.22;;;22.33;61.77
74688;BME280;63216;49.544;8.442;2022-10-16T04:46:37;100419.75;;;22.34;62.25
74688;BME280;63216;49.544;8.442;2022-10-16T04:49:02;100408.56;;;22.34;61.97
74688;BME280;63216;49.544;8.442;2022-10-16T04:51:27;100405.75;;;22.34;62.20
74688;BME280;63216;49.544;8.442;2022-10-16T04:53:54;100411.84;;;22.33;62.18
74688;BME280;63216;49.544;8.442;2022-10-16T04:56:20;100416.16;;;22.34;61.86
74688;BME280;63216;49.544;8.442;2022-10-16T04:58:46;100411.34;;;22.34;61.83
74688;BME280;63216;49.544;8.442;2022-10-16T05:01:12;100397.84;;;22.33;62.06
74688;BME280;63216;49.544;8.442;2022-10-16T05:03:37;100406.25;;;22.33;62.23
74688;BME280;63216;49.544;8.442;2022-10-16T05:06:05;100414.16;;;22.34;61.83
74688;BME280;63216;49.544;8.442;2022-10-16T05:08:31;100414.16;;;22.34;62.01
74688;BME280;63216;49.544;8.442;2022-10-16T05:10:56;100406.25;;;22.33;61.78
74688;BME280;63216;49.544;8.442;2022-10-16T05:13:21;100409.53;;;22.31;62.03
74688;BME280;63216;49.544;8.442;2022-10-16T05:15:48;100403.94;;;22.31;62.16
74688;BME280;63216;49.544;8.442;2022-10-16T05:18:14;100395.53;;;22.31;62.06
74688;BME280;63216;49.544;8.442;2022-10-16T05:20:40;100391.97;;;22.31;62.37
74688;BME280;63216;49.544;8.442;2022-10-16T05:23:06;100381.25;;;22.29;62.25
74688;BME280;63216;49.544;8.442;2022-10-16T05:25:31;100375.38;;;22.27;62.09
74688;BME280;63216;49.544;8.442;2022-10-16T05:27:56;100376.16;;;22.28;61.96
74688;BME280;63216;49.544;8.442;2022-10-16T05:30:22;100369.03;;;22.27;62.22
74688;BME280;63216;49.544;8.442;2022-10-16T05:32:48;100387.34;;;22.28;62.19
74688;BME280;63216;49.544;8.442;2022-10-16T05:35:15;100398.56;;;22.28;62.25
74688;BME280;63216;49.544;8.442;2022-10-16T05:37:40;100406.97;;;22.28;61.99
74688;BME280;63216;49.544;8.442;2022-10-16T05:40:06;100415.84;;;22.26;62.03
74688;BME280;63216;49.544;8.442;2022-10-16T05:42:31;100425.81;;;22.27;61.91
74688;BME280;63216;49.544;8.442;2022-10-16T05:44:57;100423.75;;;22.28;62.02
74688;BME280;63216;49.544;8.442;2022-10-16T05:47:22;100433.44;;;22.27;62.07
74688;BME280;63216;49.544;8.442;2022-10-16T05:49:48;100437.78;;;22.28;62.05
74688;BME280;63216;49.544;8.442;2022-10-16T05:52:13;100433.44;;;22.27;62.18
74688;BME280;63216;49.544;8.442;2022-10-16T05:54:38;100430.91;;;22.29;61.79
74688;BME280;63216;49.544;8.442;2022-10-16T05:57:03;100432.16;;;22.28;62.29
74688;BME280;63216;49.544;8.442;2022-10-16T05:59:31;100439.81;;;22.27;62.34
74688;BME280;63216;49.544;8.442;2022-10-16T06:01:56;100445.13;;;22.25;61.80
74688;BME280;63216;49.544;8.442;2022-10-16T06:04:21;100446.66;;;22.26;62.06
74688;BME280;63216;49.544;8.442;2022-10-16T06:06:47;100459.44;;;22.27;62.38
74688;BME280;63216;49.544;8.442;2022-10-16T06:09:12;100465.50;;;22.26;62.29
74688;BME280;63216;49.544;8.442;2022-10-16T06:11:37;100462.69;;;22.26;62.31
74688;BME280;63216;49.544;8.442;2022-10-16T06:14:03;100460.69;;;22.26;62.12
74688;BME280;63216;49.544;8.442;2022-10-16T06:16:32;100469.88;;;22.27;61.94
74688;BME280;63216;49.544;8.442;2022-10-16T06:18:57;100478.53;;;22.29;61.77
74688;BME280;63216;49.544;8.442;2022-10-16T06:21:25;100472.69;;;22.27;62.55
74688;BME280;63216;49.544;8.442;2022-10-16T06:23:51;100471.66;;;22.30;61.77
74688;BME280;63216;49.544;8.442;2022-10-16T06:26:20;100478.81;;;22.31;61.67
74688;BME280;63216;49.544;8.442;2022-10-16T06:28:47;100477.53;;;22.32;62.12
74688;BME280;63216;49.544;8.442;2022-10-16T06:31:13;100486.44;;;22.30;62.19
74688;BME280;63216;49.544;8.442;2022-10-16T06:33:39;100487.22;;;22.31;61.77
74688;BME280;63216;49.544;8.442;2022-10-16T06:36:13;100491.28;;;22.30;61.70
74688;BME280;63216;49.544;8.442;2022-10-16T06:38:39;100497.63;;;22.30;61.73
74688;BME280;63216;49.544;8.442;2022-10-16T06:41:06;100496.13;;;22.29;62.01
74688;BME280;63216;49.544;8.442;2022-10-16T06:43:32;100497.63;;;22.30;61.66
74688;BME280;63216;49.544;8.442;2022-10-16T06:45:59;100496.38;;;22.31;61.95
74688;BME280;63216;49.544;8.442;2022-10-16T06:48:25;100504.03;;;22.31;61.65
74688;BME280;63216;49.544;8.442;2022-10-16T06:53:27;100500.75;;;22.32;61.75
74688;BME280;63216;49.544;8.442;2022-10-16T06:55:53;100499.47;;;22.33;61.81
74688;BME280;63216;49.544;8.442;2022-10-16T06:58:18;100501.00;;;22.34;61.82
74688;BME280;63216;49.544;8.442;2022-10-16T07:00:44;100500.53;;;22.36;61.88
74688;BME280;63216;49.544;8.442;2022-10-16T07:03:09;100511.72;;;22.36;61.90
74688;BME280;63216;49.544;8.442;2022-10-16T07:05:41;100520.41;;;22.38;61.77
74688;BME280;63216;49.544;8.442;2022-10-16T07:08:08;100526.50;;;22.36;61.85
74688;BME280;63216;49.544;8.442;2022-10-16T07:10:34;100530.06;;;22.37;62.18
74688;BME280;63216;49.544;8.442;2022-10-16T07:12:59;100528.81;;;22.38;61.88
74688;BME280;63216;49.544;8.442;2022-10-16T07:15:25;100537.22;;;22.38;61.96
74688;BME280;63216;49.544;8.442;2022-10-16T07:17:51;100543.59;;;22.38;61.97
74688;BME280;63216;49.544;8.442;2022-10-16T07:20:17;100543.59;;;22.38;62.37
74688;BME280;63216;49.544;8.442;2022-10-16T07:22:42;100548.44;;;22.38;62.10
74688;BME280;63216;49.544;8.442;2022-10-16T07:25:08;100544.34;;;22.39;62.21
74688;BME280;63216;49.544;8.442;2022-10-16T07:27:34;100555.56;;;22.39;62.04
74688;BME280;63216;49.544;8.442;2022-10-16T07:29:59;100560.13;;;22.36;62.44
74688;BME280;63216;49.544;8.442;2022-10-16T07:32:24;100566.00;;;22.38;62.03
74688;BME280;63216;49.544;8.442;2022-10-16T07:34:51;100563.19;;;22.38;62.39
74688;BME280;63216;49.544;8.442;2022-10-16T07:37:16;100569.56;;;22.39;62.50
74688;BME280;63216;49.544;8.442;2022-10-16T07:39:42;100560.41;;;22.38;61.90
74688;BME280;63216;49.544;8.442;2022-10-16T07:42:07;100561.66;;;22.37;62.05
74688;BME280;63216;49.544;8.442;2022-10-16T07:44:33;100567.25;;;22.37;62.49
74688;BME280;63216;49.544;8.442;2022-10-16T07:46:58;100568.53;;;22.36;62.47
74688;BME280;63216;49.544;8.442;2022-10-16T07:49:24;100568.81;;;22.38;62.20
74688;BME280;63216;49.544;8.442;2022-10-16T07:51:49;100566.00;;;22.38;62.50
74688;BME280;63216;49.544;8.442;2022-10-16T07:54:14;100574.41;;;22.38;61.92
74688;BME280;63216;49.544;8.442;2022-10-16T07:56:40;100576.44;;;22.38;61.90
74688;BME280;63216;49.544;8.442;2022-10-16T07:59:05;100588.41;;;22.38;62.17
74688;BME280;63216;49.544;8.442;2022-10-16T08:01:31;100584.06;;;22.37;61.87
74688;BME280;63216;49.544;8.442;2022-10-16T08:03:56;100585.34;;;22.36;61.99
74688;BME280;63216;49.544;8.442;2022-10-16T08:06:22;100584.56;;;22.36;62.26
74688;BME280;63216;49.544;8.442;2022-10-16T08:08:47;100576.94;;;22.36;62.19
74688;BME280;63216;49.544;8.442;2022-10-16T08:11:13;100575.38;;;22.35;61.94
74688;BME280;63216;49.544;8.442;2022-10-16T08:13:40;100593.47;;;22.34;61.97
74688;BME280;63216;49.544;8.442;2022-10-16T08:16:06;100602.63;;;22.35;61.88
74688;BME280;63216;49.544;8.442;2022-10-16T08:18:42;100597.03;;;22.35;62.46
74688;BME280;63216;49.544;8.442;2022-10-16T08:21:12;100596.00;;;22.32;62.03
74688;BME280;63216;49.544;8.442;2022-10-16T08:23:38;100608.72;;;22.33;62.25
74688;BME280;63216;49.544;8.442;2022-10-16T08:26:06;100615.63;;;22.32;62.26
74688;BME280;63216;49.544;8.442;2022-10-16T08:28:32;100629.63;;;22.32;62.22
74688;BME280;63216;49.544;8.442;2022-10-16T08:31:05;100644.88;;;22.31;61.96
74688;BME280;63216;49.544;8.442;2022-10-16T08:33:31;100648.94;;;22.30;61.97
74688;BME280;63216;49.544;8.442;2022-10-16T08:35:56;100634.66;;;22.28;62.19
74688;BME280;63216;49.544;8.442;2022-10-16T08:38:22;100658.63;;;22.29;62.19
74688;BME280;63216;49.544;8.442;2022-10-16T08:40:47;100679.47;;;22.28;62.38
74688;BME280;63216;49.544;8.442;2022-10-16T08:43:28;100704.69;;;22.28;62.22
74688;BME280;63216;49.544;8.442;2022-10-16T08:48:38;100663.94;;;22.27;61.96
74688;BME280;63216;49.544;8.442;2022-10-16T08:51:11;100672.34;;;22.27;62.15
74688;BME280;63216;49.544;8.442;2022-10-16T08:53:45;100653.97;;;22.26;62.23
74688;BME280;63216;49.544;8.442;2022-10-16T08:56:11;100670.78;;;22.26;62.35
74688;BME280;63216;49.544;8.442;2022-10-16T08:58:37;100653.97;;;22.26;62.21
74688;BME280;63216;49.544;8.442;2022-10-16T09:01:04;100655.53;;;22.27;62.10
74688;BME280;63216;49.544;8.442;2022-10-16T09:12:10;100685.06;;;22.28;61.98
74688;BME280;63216;49.544;8.442;2022-10-16T09:15:02;100687.41;;;22.30;63.50
74688;BME280;63216;49.544;8.442;2022-10-16T09:22:38;100682.66;;;22.36;63.79
74688;BME280;63216;49.544;8.442;2022-10-16T09:25:14;100684.44;;;22.39;62.62
74688;BME280;63216;49.544;8.442;2022-10-16T09:27:40;100689.28;;;22.38;63.85
74688;BME280;63216;49.544;8.442;2022-10-16T09:30:20;100700.28;;;22.42;63.39
74688;BME280;63216;49.544;8.442;2022-10-16T09:32:48;100704.34;;;22.41;63.30
74688;BME280;63216;49.544;8.442;2022-10-16T09:35:21;100698.25;;;22.42;63.41
74688;BME280;63216;49.544;8.442;2022-10-16T09:37:49;100696.25;;;22.43;62.95
74688;BME280;63216;49.544;8.442;2022-10-16T09:40:33;100698.53;;;22.45;63.01
74688;BME280;63216;49.544;8.442;2022-10-16T09:48:19;100710.81;;;22.47;63.29
74688;BME280;63216;49.544;8.442;2022-10-16T09:50:55;100713.88;;;22.49;63.26
74688;BME280;63216;49.544;8.442;2022-10-16T09:53:21;100711.09;;;22.49;63.73
74688;BME280;63216;49.544;8.442;2022-10-16T09:55:52;100714.66;;;22.50;63.71
74688;BME280;63216;49.544;8.442;2022-10-16T09:58:20;100708.81;;;22.53;63.17
74688;BME280;63216;49.544;8.442;2022-10-16T10:00:53;100708.34;;;22.55;63.85
74688;BME280;63216;49.544;8.442;2022-10-16T10:03:39;100708.63;;;22.57;63.34
74688;BME280;63216;49.544;8.442;2022-10-16T10:08:56;100709.09;;;22.55;62.97
74688;BME280;63216;49.544;8.442;2022-10-16T10:11:39;100696.16;;;22.58;63.21
74688;BME280;63216;49.544;8.442;2022-10-16T10:14:15;100699.72;;;22.58;63.34
74688;BME280;63216;49.544;8.442;2022-10-16T10:16:41;100704.84;;;22.60;63.08
74688;BME280;63216;49.544;8.442;2022-10-16T10:19:26;100712.75;;;22.61;63.37
74688;BME280;63216;49.544;8.442;2022-10-16T10:21:52;100717.56;;;22.61;62.32
74688;BME280;63216;49.544;8.442;2022-10-16T10:24:19;100723.50;;;22.63;62.96
74688;BME280;63216;49.544;8.442;2022-10-16T10:26:49;100716.88;;;22.66;63.41
74688;BME280;63216;49.544;8.442;2022-10-16T10:29:38;100722.75;;;22.68;63.36
74688;BME280;63216;49.544;8.442;2022-10-16T10:35:20;100707.50;;;22.69;63.50
74688;BME280;63216;49.544;8.442;2022-10-16T10:40:53;100709.31;;;22.72;63.15
74688;BME280;63216;49.544;8.442;2022-10-16T10:45:55;100703.19;;;22.74;63.74
74688;BME280;63216;49.544;8.442;2022-10-16T10:48:41;100700.41;;;22.74;63.80
74688;BME280;63216;49.544;8.442;2022-10-16T10:51:13;100702.22;;;22.77;63.71
74688;BME280;63216;49.544;8.442;2022-10-16T10:53:51;100694.56;;;22.77;63.72
74688;BME280;63216;49.544;8.442;2022-10-16T11:01:59;100705.56;;;22.81;63.49
74688;BME280;63216;49.544;8.442;2022-10-16T11:04:37;100702.28;;;22.83;63.47
74688;BME280;63216;49.544;8.442;2022-10-16T11:07:16;100701.03;;;22.84;63.45
74688;BME280;63216;49.544;8.442;2022-10-16T11:09:47;100698.50;;;22.86;63.45
74688;BME280;63216;49.544;8.442;2022-10-16T11:13:14;100700.81;;;22.87;63.02
74688;BME280;63216;49.544;8.442;2022-10-16T11:15:35;100703.41;;;22.91;63.01
74688;BME280;63216;49.544;8.442;2022-10-16T11:20:38;100707.25;;;22.93;63.09
74688;BME280;63216;49.544;8.442;2022-10-16T11:25:34;100714.69;;;22.96;63.00
74688;BME280;63216;49.544;8.442;2022-10-16T11:28:26;100712.91;;;22.99;63.13
74688;BME280;63216;49.544;8.442;2022-10-16T11:41:29;100710.25;;;23.10;62.90
74688;BME280;63216;49.544;8.442;2022-10-16T11:46:37;100702.38;;;23.14;62.59
74688;BME280;63216;49.544;8.442;2022-10-16T11:49:16;100699.09;;;23.16;62.20
74688;BME280;63216;49.544;8.442;2022-10-16T11:54:55;100697.81;;;23.17;62.06
74688;BME280;63216;49.544;8.442;2022-10-16T11:57:24;100702.16;;;23.18;62.19
74688;BME280;63216;49.544;8.442;2022-10-16T11:59:55;100697.81;;;23.17;62.23
74688;BME280;63216;49.544;8.442;2022-10-16T12:07:44;100704.19;;;23.17;62.21
74688;BME280;63216;49.544;8.442;2022-10-16T12:10:26;100694.25;;;23.16;62.32
74688;BME280;63216;49.544;8.442;2022-10-16T12:12:52;100694.25;;;23.16;61.98
74688;BME280;63216;49.544;8.442;2022-10-16T12:15:24;100692.19;;;23.17;62.01
74688;BME280;63216;49.544;8.442;2022-10-16T12:17:51;100686.31;;;23.15;62.04
74688;BME280;63216;49.544;8.442;2022-10-16T12:22:54;100692.41;;;23.13;61.79
74688;BME280;63216;49.544;8.442;2022-10-16T12:25:40;100677.13;;;23.14;61.70
74688;BME280;63216;49.544;8.442;2022-10-16T12:30:41;100686.81;;;23.13;61.89
74688;BME280;63216;49.544;8.442;2022-10-16T12:33:39;100688.84;;;23.13;61.82
74688;BME280;63216;49.544;8.442;2022-10-16T12:36:08;100685.28;;;23.12;61.70
74688;BME280;63216;49.544;8.442;2022-10-16T12:38:48;100680.44;;;23.13;61.89
74688;BME280;63216;49.544;8.442;2022-10-16T12:43:53;100683.72;;;23.11;62.04
74688;BME280;63216;49.544;8.442;2022-10-16T12:48:45;100681.69;;;23.12;61.72
74688;BME280;63216;49.544;8.442;2022-10-16T12:51:22;100684.50;;;23.12;61.76
74688;BME280;63216;49.544;8.442;2022-10-16T12:54:17;100674.34;;;23.14;61.90
74688;BME280;63216;49.544;8.442;2022-10-16T12:57:04;100676.66;;;23.16;61.76
74688;BME280;63216;49.544;8.442;2022-10-16T12:59:43;100667.72;;;23.17;61.77
74688;BME280;63216;49.544;8.442;2022-10-16T13:02:39;100682.53;;;23.18;61.77
74688;BME280;63216;49.544;8.442;2022-10-16T13:08:03;100679.72;;;23.18;61.96
74688;BME280;63216;49.544;8.442;2022-10-16T13:10:41;100681.25;;;23.19;61.59
74688;BME280;63216;49.544;8.442;2022-10-16T13:18:46;100690.16;;;23.17;61.51
74688;BME280;63216;49.544;8.442;2022-10-16T13:29:04;100699.59;;;23.14;62.07
74688;BME280;63216;49.544;8.442;2022-10-16T13:31:30;100698.03;;;23.13;62.27
74688;BME280;63216;49.544;8.442;2022-10-16T13:33:58;100700.84;;;23.13;62.62
74688;BME280;63216;49.544;8.442;2022-10-16T13:36:30;100700.84;;;23.13;61.75
74688;BME280;63216;49.544;8.442;2022-10-16T13:39:13;100696.78;;;23.14;61.79
74688;BME280;63216;49.544;8.442;2022-10-16T13:41:40;100685.81;;;23.16;61.88
74688;BME280;63216;49.544;8.442;2022-10-16T13:44:17;100696.28;;;23.16;62.07
74688;BME280;63216;49.544;8.442;2022-10-16T13:46:44;100694.25;;;23.16;62.12
74688;BME280;63216;49.544;8.442;2022-10-16T13:49:17;100702.16;;;23.18;62.15
74688;BME280;63216;49.544;8.442;2022-10-16T13:51:57;100705.25;;;23.20;62.35
74688;BME280;63216;49.544;8.442;2022-10-16T13:54:24;100698.34;;;23.21;62.48
74688;BME280;63216;49.544;8.442;2022-10-16T13:56:50;100700.38;;;23.21;62.70
74688;BME280;63216;49.544;8.442;2022-10-16T13:59:32;100704.75;;;23.22;62.39
74688;BME280;63216;49.544;8.442;2022-10-16T14:02:05;100701.94;;;23.22;62.18
74688;BME280;63216;49.544;8.442;2022-10-16T14:04:38;100707.56;;;23.22;62.96
74688;BME280;63216;49.544;8.442;2022-10-16T14:07:03;100710.34;;;23.22;63.01
74688;BME280;63216;49.544;8.442;2022-10-16T14:09:30;100704.75;;;23.22;63.04
74688;BME280;63216;49.544;8.442;2022-10-16T14:12:01;100703.47;;;23.23;62.56
74688;BME280;63216;49.544;8.442;2022-10-16T14:14:52;100701.94;;;23.22;63.02
74688;BME280;63216;49.544;8.442;2022-10-16T14:17:22;100707.56;;;23.22;63.00
74688;BME280;63216;49.544;8.442;2022-10-16T14:19:50;100700.66;;;23.23;62.83
74688;BME280;63216;49.544;8.442;2022-10-16T14:24:55;100698.66;;;23.23;62.66
74688;BME280;63216;49.544;8.442;2022-10-16T14:27:33;100691.22;;;23.20;62.36
74688;BME280;63216;49.544;8.442;2022-10-16T14:30:13;100694.03;;;23.20;63.14
74688;BME280;63216;49.544;8.442;2022-10-16T14:32:53;100695.53;;;23.21;62.76
74688;BME280;63216;49.544;8.442;2022-10-16T14:35:39;100687.13;;;23.21;63.30
74688;BME280;63216;49.544;8.442;2022-10-16T14:38:15;100695.53;;;23.21;62.76
74688;BME280;63216;49.544;8.442;2022-10-16T14:40:47;100696.81;;;23.20;62.63
74688;BME280;63216;49.544;8.442;2022-10-16T14:43:37;100691.97;;;23.21;62.69
74688;BME280;63216;49.544;8.442;2022-10-16T14:46:07;100685.34;;;23.18;62.37
74688;BME280;63216;49.544;8.442;2022-10-16T14:48:34;100699.34;;;23.18;62.25
74688;BME280;63216;49.544;8.442;2022-10-16T14:50:59;100701.38;;;23.17;62.58
74688;BME280;63216;49.544;8.442;2022-10-16T14:53:25;100704.69;;;23.16;62.21